Weather observations for the past three days for
Mineola/Quitman, Wood County Airport
Imperial (Metric)
Date Time (cdt) Wind (mph) Vis. (mi.) Weather Sky Cond. Temperature (ºF) Relative Humidity Wind Chill (°F) Heat Index (°F) Pressure Precipitation (in)
Air Dwpt 6 hour altimeter (in) sea level (mb) 1 hr 3 hr 6 hr
Max. Min.
07 14:55 Vrbl 5 10.00 A Few Clouds FEW280 70 53.6 56% 30.01 0.0
07 14:35 Vrbl 3 9.00 Partly Cloudy FEW280 SCT350 SCT380 70.2 53.1 55% 30.02 0.0
07 14:15 Calm 9.00 Partly Cloudy FEW250 SCT350 SCT370 70 53.1 55% 30.03 0.0
07 13:55 Vrbl 5 9.00 Partly Cloudy FEW260 SCT350 SCT370 69.3 52.5 55% 30.02 0.0
07 13:35 N 5 10.00 A Few Clouds FEW270 70.2 52.9 54% 30.03 0.0
07 13:15 Vrbl 5 10.00 A Few Clouds FEW280 68.5 52.7 57% 30.03 0.0
07 12:55 Vrbl 3 10.00 Partly Cloudy FEW280 SCT330 SCT350 SCT370 69.1 53.2 57% 30.04 0.0
07 12:35 N 5 9.00 Partly Cloudy FEW280 SCT340 SCT380 66.9 52.5 60% 30.05 0.0
07 12:15 N 8 9.00 A Few Clouds FEW310 68 51.8 56% 30.07 0.0
07 11:55 Vrbl 6 10.00 Fair CLR 66.9 51.8 58% 30.08 0.0
07 11:35 Vrbl 3 9.00 Fair CLR 66.4 52.2 60% 30.08 0.0
07 11:15 N 5 10.00 Fair CLR 65.1 51.8 62% 30.08 0.0
07 10:55 N 7 10.00 Fair CLR 65.1 51.6 62% 30.09 0.0
07 10:35 N 6 10.00 Fair CLR 63.1 51.1 65% 30.1 0.0
07 10:15 Vrbl 3 10.00 Fair CLR 62.4 50.5 65% 30.1 0.0
07 09:55 Vrbl 3 10.00 Fair CLR 61 50.7 69% 30.1 0.0
07 09:35 Vrbl 5 10.00 Fair CLR 60.1 50.2 70% 30.11 0.0
07 09:15 Vrbl 5 9.00 Fair CLR 60.3 50.7 71% 30.11 0.0
07 08:55 Vrbl 3 10.00 Fair CLR 58.3 51.1 77% 30.12 0.0
07 08:35 N 3 10.00 Fair CLR 56.8 51.3 82% 30.12 0.0
07 08:15 N 3 9.00 Fair CLR 55.8 51.6 86% 30.11 0.0
07 07:55 Calm 9.00 Fair CLR 54.5 52 91% 30.11 0.0
07 07:35 Calm 9.00 Fair CLR 53.2 51.4 94% 30.1 0.0
07 07:15 Calm 9.00 Fair CLR 51.8 50.9 97% 30.1 0.0
07 06:55 Calm 9.00 Fair CLR 51.1 50.5 98% 30.09 0.0
07 06:35 NW 3 9.00 Fair CLR 51.3 50.4 97% 30.07 0.0
07 06:15 Calm 10.00 A Few Clouds FEW290 51.3 50.7 98% 30.06 0.0
07 05:55 Calm 9.00 A Few Clouds FEW290 50.9 50.4 98% 30.05 0.0
07 05:35 N 5 9.00 A Few Clouds FEW280 51.3 50.7 98% 30.04 0.0
07 05:15 N 3 9.00 A Few Clouds FEW280 51.3 50.5 97% 30.04 0.0
07 04:55 N 3 10.00 Fair CLR 51.4 50.7 97% 30.04 0.0
07 04:35 Calm 10.00 Fair CLR 51.6 50.7 97% 30.03 0.0
07 04:15 N 3 10.00 Fair CLR 52 50.7 96% 30.03 0.0
07 03:55 N 3 10.00 Fair CLR 52 50.7 96% 30.03 0.0
07 03:35 N 3 10.00 Fair CLR 51.8 50.5 96% 30.02 0.0
07 03:15 Calm 10.00 Fair CLR 52 50.4 94% 30.01 0.0
07 02:55 Calm 10.00 A Few Clouds FEW290 52.7 50.4 92% 30.01 0.0
07 02:35 Calm 10.00 A Few Clouds FEW290 52.9 50.7 92% 30.01 0.0
07 02:15 Calm 10.00 A Few Clouds FEW031 53.8 50.7 89% 30.02 0.0
07 01:55 Calm 10.00 Mostly Cloudy BKN031 54.3 50.9 88% 30.02 0.0
07 01:35 Vrbl 3 10.00 Mostly Cloudy BKN031 54.7 51.3 88% 30.02 0.0
07 01:15 Vrbl 3 10.00 Overcast OVC030 55 51.8 89% 30.03 0.0
07 00:55 Calm 10.00 Overcast OVC030 55.2 52.3 90% 30.03 0.0
07 00:35 N 5 10.00 Overcast FEW012 OVC027 55 52.9 92% 30.03 0.0
07 00:15 Calm 10.00 Overcast BKN012 OVC026 55.2 52.9 92% 30.04 0.0
06 23:55 N 6 10.00 Overcast BKN013 OVC027 55.2 52.9 92% 30.04 0.0
06 23:35 Calm 10.00 Overcast SCT011 OVC025 55 52.9 92% 30.04 0.0
06 23:15 Calm 10.00 Overcast SCT011 BKN024 OVC031 55.2 52.3 90% 30.04 0.0
06 22:55 Vrbl 5 10.00 Overcast SCT014 BKN021 OVC031 55.2 52 89% 30.04 0.0
06 22:35 Vrbl 5 10.00 Overcast OVC013 55.4 51.6 87% 30.02 0.0
06 22:15 Vrbl 5 10.00 Overcast BKN014 OVC023 55.8 51.6 86% 30.03 0.0
06 21:55 Vrbl 6 10.00 Overcast SCT015 OVC023 55.8 52 87% 30.01 0.0
06 21:35 Vrbl 7 10.00 Overcast BKN013 OVC023 56.1 52.7 88% 30 0.0
06 21:15 Vrbl 6 10.00 Overcast OVC011 56.3 53.2 90% 29.99 0.0
06 20:55 Vrbl 6 10.00 Overcast OVC011 56.7 53.6 90% 29.97 0.0
06 20:35 N 8 10.00 Overcast OVC009 57 54.5 91% 29.95 0.0
06 20:15 Vrbl 5 10.00 Overcast BKN008 OVC013 57.6 55.4 93% 29.95 0.0
06 19:55 Vrbl 5 10.00 Overcast OVC010 58.1 55.8 92% 29.93 0.0
06 19:35 N 5 10.00 Overcast OVC011 58.6 55.9 91% 29.93 0.0
06 19:15 N 6 9.00 Overcast BKN010 OVC015 59 56.5 91% 29.93 0.0
06 18:55 N 12 9.00 Overcast OVC009 59.4 57.4 93% 29.92 0.0
06 18:35 N 5 7.00 Light Rain OVC009 59.7 57.9 94% 29.92 0.0
06 18:15 Vrbl 6 8.00 Overcast OVC010 60.1 57.6 91% 29.92 0.0
06 17:55 Vrbl 3 10.00 Overcast OVC010 60.3 57.4 90% 29.92 0.0
06 17:35 N 6 9.00 Overcast OVC009 60.1 57.2 90% 29.9 0.0
06 17:15 N 6 9.00 Overcast OVC008 59.9 57 90% 29.9 0.0
06 16:55 N 7 9.00 Overcast OVC008 59.7 57.4 92% 29.89 0.0
06 16:35 N 8 8.00 Overcast OVC008 59.4 57.4 93% 29.9 0.0
06 16:15 N 10 7.00 Overcast OVC009 60.3 57.4 90% 29.92 0.0
06 15:55 N 7 7.00 Overcast OVC010 60.4 57.2 89% 29.91 0.0
06 15:35 NW 6 5.00 Fog/Mist OVC010 60.8 57 87% 29.92 0.0
06 15:15 N 6 9.00 Overcast OVC011 60.4 56.7 87% 29.92 0.0
06 14:55 Vrbl 3 9.00 Overcast OVC011 60.3 56.7 88% 29.9 0.0
06 14:35 Vrbl 3 9.00 Overcast OVC011 60.1 55.9 86% 29.92 0.0
06 14:15 N 7 9.00 Overcast OVC010 60.3 56.1 86% 29.89 0.0
06 13:55 Calm 9.00 Overcast OVC010 59.9 56.1 87% 29.88 0.0
06 13:35 Vrbl 3 9.00 Overcast OVC010 58.6 55.4 89% 29.88 0.0
06 13:15 Vrbl 6 9.00 Overcast OVC010 58.6 54.9 87% 29.89 0.0
06 12:55 NE 5 10.00 Overcast OVC011 58.6 54.3 86% 29.92 0.0
06 12:35 Vrbl 6 9.00 Overcast OVC010 58.1 54.1 87% 29.92 0.0
06 12:15 N 10 10.00 Overcast OVC010 57.6 53.8 87% 29.92 0.0
06 11:55 N 5 9.00 Overcast BKN008 OVC015 56.3 53.6 91% 29.96 0.0
06 11:35 Vrbl 3 7.00 Light Rain OVC008 56.3 54 92% 29.95 0.0
06 11:15 N 10 9.00 Overcast OVC009 56.8 53.4 88% 29.97 0.0
06 10:55 N 9 9.00 Overcast OVC009 56.5 53.1 88% 29.97 0.0
06 10:35 N 8 9.00 Overcast OVC009 56.5 52.9 88% 29.93 0.0
06 10:15 N 6 9.00 Overcast OVC009 56.3 53.1 89% 29.92 0.0
06 09:55 N 8 9.00 Overcast OVC008 56.1 52.9 89% 29.93 0.0
06 09:35 N 8 8.00 Overcast OVC008 56.1 53.1 90% 29.91 0.0
06 09:15 N 8 9.00 Overcast OVC008 55.9 53.1 90% 29.9 0.0
06 08:55 N 10 7.00 Light Rain OVC009 55.8 53.4 92% 29.9 0.0
06 08:35 N 9 9.00 Overcast OVC009 55.8 52.9 90% 29.89 0.0
06 08:15 N 8 7.00 Light Rain OVC009 55.8 53.6 93% 29.89 0.0
06 07:55 N 9 9.00 Overcast BKN009 OVC013 55.9 53.6 92% 29.89 0.0
06 07:35 N 10 5.00 Fog/Mist OVC012 56.1 53.8 92% 29.88 0.0
06 07:15 NW 9 9.00 Overcast OVC011 57.2 53.8 88% 29.87 0.0
06 06:55 N 10 7.00 Overcast OVC012 57.7 53.8 87% 29.85 0.0
06 06:35 NW 8 10.00 Overcast OVC011 59 54.3 85% 29.84 0.0
06 06:15 N 6 10.00 Overcast OVC011 58.8 54.7 86% 29.83 0.0
06 05:55 NW 7 9.00 Overcast OVC011 59.2 55 86% 29.82 0.0
06 05:35 N 7 10.00 Overcast OVC011 60.1 55 84% 29.82 0.0
06 05:15 N 6 10.00 Overcast OVC012 60.3 55.2 84% 29.8 0.0
06 04:55 N 6 10.00 Overcast OVC012 60.4 55.8 85% 29.8 0.0
06 04:35 N 3 10.00 Overcast OVC012 60.4 55.9 85% 29.79 0.0
06 04:15 N 7 10.00 Overcast OVC013 60.6 56.1 85% 29.8 0.0
06 03:55 N 7 9.00 Overcast OVC014 61.5 56.1 83% 29.8 0.0
06 03:35 N 8 9.00 Overcast OVC014 62.6 57.2 83% 29.79 0.0
06 03:15 NW 8 10.00 Overcast OVC015 63 56.8 81% 29.79 0.0
06 02:55 N 9 10.00 Overcast OVC016 63.9 57.4 80% 29.79 0.0
06 02:35 NW 10 10.00 Overcast OVC017 64.8 58.1 79% 29.78 0.0
06 01:55 N 8 10.00 Overcast OVC018 66 59 78% 29.77 0.0
06 01:35 N 7 10.00 Overcast OVC018 67.1 59.7 77% 29.77 0.0
06 00:55 N 10 10.00 Overcast OVC018 69.4 62.1 78% 29.77 0.0
06 00:35 N 9 10.00 Overcast OVC018 71.6 64.8 79% 29.76 0.0
06 00:15 NW 12 G 17 9.00 Overcast BKN021 OVC026 75.9 70.3 83% 77 29.76 0.0
05 23:55 W 5 10.00 Mostly Cloudy BKN026 BKN033 77.4 72.5 85% 79 29.76 0.0
05 23:35 Calm 10.00 Overcast OVC027 76.8 72.3 86% 78 29.75 0.0
05 23:15 Calm 10.00 Mostly Cloudy BKN027 77.2 72.3 85% 79 29.74 0.0
05 22:55 SW 7 10.00 A Few Clouds FEW220 77.2 72.5 86% 79 29.73 0.0
05 22:35 S 5 9.00 Partly Cloudy SCT220 76.8 72.1 86% 78 29.72 0.0
05 22:15 Vrbl 5 9.00 A Few Clouds FEW220 77.5 72.1 84% 79 29.7 0.0
05 21:55 Calm 10.00 Fair CLR 77.9 72.1 83% 80 29.7 0.0
05 21:35 S 3 10.00 A Few Clouds FEW220 78.6 72 80% 81 29.7 0.0
05 21:15 Vrbl 6 10.00 Fair CLR 78.6 71.8 80% 81 29.69 0.0
05 20:55 S 6 10.00 Fair CLR 78.1 71.6 81% 80 29.68 0.0
05 20:35 S 5 10.00 Fair CLR 78.3 71.6 80% 81 29.69 0.0
05 20:15 S 3 10.00 Fair CLR 79.3 71.8 78% 83 29.68 0.0
05 19:55 Vrbl 5 9.00 Fair CLR 79.7 71.8 77% 83 29.68 0.0
05 19:35 S 6 9.00 Fair CLR 80.8 71.6 74% 85 29.68 0.0
05 19:15 SW 5 9.00 Fair CLR 81.7 71.4 71% 86 29.67 0.0
05 18:55 SW 7 9.00 Partly Cloudy SCT038 82.4 71.1 69% 87 29.67 0.0
05 18:35 S 8 9.00 Mostly Cloudy BKN036 83.1 70.7 66% 88 29.67 0.0
05 18:15 SW 8 9.00 Mostly Cloudy BKN034 BKN220 82.9 70.3 66% 87 29.67 0.0
05 17:55 S 10 10.00 Mostly Cloudy SCT034 BKN220 82.9 70.5 66% 87 29.66 0.0
05 17:35 S 9 10.00 Mostly Cloudy BKN034 82.6 70.3 67% 87 29.66 0.0
05 17:15 S 7 10.00 Partly Cloudy SCT034 82.4 70.5 67% 87 29.66 0.0
05 16:55 SW 12 G 17 10.00 A Few Clouds FEW032 82.8 70 65% 87 29.66 0.0
05 16:35 SW 13 10.00 A Few Clouds FEW035 82.4 70.3 67% 87 29.67 0.0
05 16:15 S 10 10.00 Partly Cloudy SCT032 83.1 70.5 66% 88 29.67 0.0
05 15:55 S 10 10.00 Partly Cloudy SCT032 83.5 70.5 65% 88 29.67 0.0
05 15:35 S 16 10.00 A Few Clouds FEW031 83.1 70.2 65% 87 29.68 0.0
05 15:15 S 15 G 23 10.00 Partly Cloudy SCT032 82 69.8 67% 86 29.68 0.0
05 14:55 S 12 G 20 10.00 Mostly Cloudy SCT029 SCT310 BKN380 82 70 67% 86 29.68 0.0
05 14:35 SW 12 10.00 Mostly Cloudy SCT029 BKN280 81.5 69.6 67% 85 29.69 0.0
05 14:15 SW 14 G 24 10.00 Partly Cloudy FEW028 SCT270 SCT300 81.3 70 69% 85 29.69 0.0
05 13:55 S 16 G 21 10.00 Mostly Cloudy BKN029 80.6 69.6 69% 84 29.7 0.0
05 13:35 SW 14 G 20 10.00 Mostly Cloudy BKN028 BKN033 80.1 69.1 69% 83 29.7 0.0
05 13:15 SW 13 G 23 10.00 Mostly Cloudy BKN029 BKN034 BKN340 80.2 68.9 68% 83 29.7 0.0
05 12:55 SW 13 G 22 10.00 Mostly Cloudy BKN027 80.1 69.1 69% 83 29.71 0.0
05 12:35 SW 15 G 25 10.00 Mostly Cloudy BKN024 BKN031 79.3 68.7 70% 82 29.71 0.0
05 12:15 S 18 G 25 10.00 Overcast OVC024 78.3 68.5 72% 80 29.71 0.0
05 11:55 SW 17 G 22 10.00 Overcast OVC022 76.8 68 74% 78 29.71 0.0
05 11:35 SW 13 G 26 10.00 Overcast BKN021 OVC027 75.6 67.8 77% 77 29.71 0.0
05 11:15 S 10 G 20 10.00 Overcast BKN020 OVC026 75.2 67.8 78% 76 29.71 0.0
05 10:55 SW 10 G 24 9.00 Overcast BKN020 OVC025 74.5 67.5 79% 29.72 0.0
05 10:35 SW 14 G 21 10.00 Overcast OVC022 74.8 67.3 77% 29.72 0.0
05 10:15 S 14 G 23 10.00 Overcast OVC020 75.2 67.6 77% 76 29.7 0.0
05 09:55 S 13 G 18 9.00 Overcast OVC020 73.8 67.3 80% 29.71 0.0
05 09:35 S 12 G 21 9.00 Overcast OVC019 72.7 67.1 83% 29.71 0.0
05 09:15 S 12 9.00 Overcast OVC018 72.1 66.9 84% 29.71 0.0
05 08:55 S 13 G 23 9.00 Overcast OVC018 71.6 66.9 85% 29.7 0.0
05 08:35 S 10 G 16 9.00 Overcast OVC019 70.9 66.9 87% 29.71 0.0
05 08:15 S 12 10.00 Overcast BKN014 OVC023 70.5 66.7 88% 29.7 0.0
05 07:55 S 12 G 18 10.00 Overcast OVC013 70.3 66.6 88% 29.7 0.0
05 07:35 S 10 G 18 9.00 Overcast OVC013 70.2 66.4 88% 29.7 0.0
05 07:15 S 6 10.00 Overcast OVC013 69.8 66.2 88% 29.7 0.0
05 06:55 S 9 9.00 Overcast OVC013 69.6 66 88% 29.69 0.0
05 06:35 S 7 10.00 Overcast OVC013 69.4 65.8 88% 29.69 0.0
05 06:15 S 10 10.00 Overcast OVC014 69.8 65.7 87% 29.7 0.0
05 05:55 SW 14 G 20 10.00 Overcast OVC015 69.8 65.1 85% 29.7 0.0
05 05:35 S 9 10.00 Overcast OVC016 69.8 64.9 85% 29.7 0.0
05 05:15 Vrbl 6 10.00 Overcast OVC017 69.8 64.8 84% 29.69 0.0
05 04:55 S 8 G 18 10.00 Overcast OVC018 70 64.6 83% 29.69 0.0
05 04:35 S 10 G 18 10.00 Overcast OVC018 70.2 64.8 83% 29.68 0.0
05 04:15 S 12 G 21 10.00 Overcast OVC018 70.3 64.8 83% 29.69 0.0
05 03:55 S 14 G 25 10.00 Overcast OVC018 70.3 64.9 83% 29.68 0.0
05 03:35 S 15 G 24 10.00 Overcast OVC019 70.2 64.8 83% 29.7 0.0
05 03:15 S 9 G 18 10.00 Mostly Cloudy BKN019 69.8 64.4 83% 29.7 0.0
05 02:55 S 9 10.00 Partly Cloudy FEW020 SCT200 69.1 64 84% 29.7 0.0
05 02:35 S 9 G 18 10.00 Mostly Cloudy BKN200 69.3 63.9 83% 29.71 0.0
05 02:15 S 10 10.00 A Few Clouds FEW200 69.8 64 82% 29.71 0.0
05 01:55 S 12 G 20 10.00 A Few Clouds FEW190 70.2 63.7 80% 29.72 0.0
05 01:35 S 12 G 20 10.00 Fair CLR 70.5 63.3 78% 29.73 0.0
05 01:15 S 8 G 18 10.00 Fair CLR 70.9 63.3 77% 29.73 0.0
05 00:55 S 9 10.00 Fair CLR 70.9 63 76% 29.73 0.0
05 00:35 S 8 10.00 Fair CLR 71.1 62.6 75% 29.74 0.0
05 00:15 S 7 10.00 Fair CLR 71.4 62.2 73% 29.74 0.0
04 23:55 S 8 10.00 Fair CLR 71.8 61.9 71% 29.74 0.0
04 23:35 S 7 10.00 Fair CLR 72.5 61.7 69% 29.75 0.0
04 23:15 S 8 G 16 10.00 Fair CLR 73 61.5 67% 29.74 0.0
04 22:55 S 9 10.00 Fair CLR 73.2 61.2 66% 29.75 0.0
04 22:35 S 8 10.00 Fair CLR 73.2 61 66% 29.75 0.0
04 22:15 S 8 10.00 Fair CLR 73.4 60.8 65% 29.75 0.0
04 21:55 S 7 10.00 Fair CLR 73.4 60.4 64% 29.75 0.0
04 21:35 S 7 10.00 A Few Clouds FEW220 73.6 60.1 63% 29.74 0.0
04 21:15 S 6 10.00 Fair CLR 74.1 59.7 61% 29.75 0.0
04 20:55 S 7 10.00 Fair CLR 74.3 59.7 61% 29.75 0.0
04 20:35 S 8 10.00 Fair CLR 74.8 59.5 59% 29.74 0.0
04 20:15 S 8 10.00 Fair CLR 75 59.4 58% 77 29.74 0.0
04 19:55 S 7 10.00 Fair CLR 75.7 59.2 57% 78 29.74 0.0
04 19:35 S 8 10.00 Fair CLR 76.5 59 55% 78 29.74 0.0
04 19:15 S 10 9.00 Fair CLR 76.8 58.5 53% 79 29.74 0.0
04 18:55 S 10 10.00 Fair CLR 77.2 58.3 52% 79 29.74 0.0
04 18:35 S 9 10.00 Fair CLR 78.4 58.5 50% 80 29.75 0.0
04 18:15 Vrbl 7 10.00 Fair CLR 78.8 58.6 50% 80 29.76 0.0
04 17:55 S 9 10.00 Fair CLR 78.8 57.9 49% 80 29.76 0.0
04 17:35 S 9 G 20 10.00 Fair CLR 78.8 57.7 49% 80 29.77 0.0
04 17:15 S 12 G 22 10.00 Fair CLR 78.6 56.8 47% 80 29.78 0.0
04 16:55 S 14 G 21 10.00 Fair CLR 79.7 56.8 46% 80 29.78 0.0
04 16:35 S 10 G 18 10.00 Fair CLR 79.3 55.9 45% 80 29.79 0.0
04 16:15 S 13 G 20 10.00 Fair CLR 79.2 55.6 44% 80 29.8 0.0
04 15:55 S 13 G 22 10.00 Fair CLR 79.5 54.9 43% 80 29.81 0.0
04 15:35 S 13 G 17 10.00 Fair CLR 79.2 54.3 42% 80 29.83 0.0
04 15:15 S 9 G 18 10.00 Fair CLR 78.4 54.3 43% 79 29.84 0.0
Date Time (cdt) Wind (mph) Vis. (mi.) Weather Sky Cond. Air Dwpt Max. Min. Relative Humidity Wind Chill (°F) Heat Index (°F) altimeter (in) sea level (mb) 1 hr 3 hr 6 hr
6 hour
Temperature (ºF) Pressure Precipitation (in)